createdAt,value
2018-12-01T00:04:10.025Z,20.92
2018-12-01T00:09:13.226Z,20.92
2018-12-01T00:14:16.453Z,20.94
2018-12-01T00:19:19.653Z,20.90
2018-12-01T00:24:22.865Z,20.90
2018-12-01T00:29:26.019Z,20.92
2018-12-01T00:34:29.266Z,20.92
2018-12-01T00:39:32.461Z,20.92
2018-12-01T00:44:35.708Z,20.89
2018-12-01T00:49:38.887Z,20.93
2018-12-01T00:54:42.110Z,20.89
2018-12-01T00:59:45.311Z,20.93
2018-12-01T01:04:49.321Z,20.92
2018-12-01T01:09:51.709Z,20.93
2018-12-01T01:14:54.934Z,20.91
2018-12-01T01:19:58.141Z,20.90
2018-12-01T01:25:01.346Z,20.90
2018-12-01T01:30:10.712Z,20.91
2018-12-01T01:35:14.106Z,20.88
2018-12-01T01:40:17.938Z,20.92
2018-12-01T01:45:21.150Z,20.89
2018-12-01T01:50:24.357Z,20.89
2018-12-01T01:55:27.562Z,20.90
2018-12-01T02:00:30.774Z,20.89
2018-12-01T02:05:33.977Z,20.87
2018-12-01T02:10:37.354Z,20.88
2018-12-01T02:15:40.522Z,20.85
2018-12-01T02:20:43.718Z,20.85
2018-12-01T02:25:46.918Z,20.87
2018-12-01T02:30:50.136Z,20.87
2018-12-01T02:35:53.335Z,20.88
2018-12-01T02:40:56.537Z,20.85
2018-12-01T02:46:11.267Z,20.88
2018-12-01T02:51:14.426Z,20.86
2018-12-01T02:56:17.626Z,20.88
2018-12-01T03:01:20.834Z,20.87
2018-12-01T03:06:24.041Z,20.89
2018-12-01T03:11:27.265Z,20.87
2018-12-01T03:16:30.477Z,20.85
2018-12-01T03:21:33.685Z,20.88
2018-12-01T03:26:36.873Z,20.90
2018-12-01T03:31:40.087Z,20.89
2018-12-01T03:36:43.305Z,20.89
2018-12-01T03:41:46.517Z,20.89
2018-12-01T03:46:49.730Z,20.88
2018-12-01T03:51:52.925Z,20.89
2018-12-01T03:56:56.134Z,20.87
2018-12-01T04:01:59.349Z,20.88
2018-12-01T04:07:02.555Z,20.90
2018-12-01T04:12:06.062Z,20.91
2018-12-01T04:17:09.280Z,20.93
2018-12-01T04:22:13.801Z,20.97
2018-12-01T04:27:18.611Z,20.98
2018-12-01T04:32:21.774Z,20.99
2018-12-01T04:37:24.982Z,20.97
2018-12-01T04:42:28.192Z,20.95
2018-12-01T04:47:31.398Z,20.95
2018-12-01T04:52:34.613Z,20.92
2018-12-01T04:57:37.824Z,20.91
2018-12-01T05:02:41.025Z,20.88
2018-12-01T05:07:44.237Z,20.89
2018-12-01T05:12:47.438Z,20.88
2018-12-01T05:17:50.642Z,20.86
2018-12-01T05:22:54.154Z,20.84
2018-12-01T05:27:57.378Z,20.82
2018-12-01T05:33:00.582Z,20.81
2018-12-01T05:38:03.786Z,20.81
2018-12-01T05:43:07.005Z,20.78
2018-12-01T05:48:10.198Z,20.77
2018-12-01T05:53:13.405Z,20.76
2018-12-01T05:58:16.609Z,20.77
2018-12-01T06:03:19.842Z,20.75
2018-12-01T06:08:23.041Z,20.73
2018-12-01T06:13:26.254Z,20.74
2018-12-01T06:18:29.453Z,20.72
2018-12-01T06:23:32.621Z,20.71
2018-12-01T06:28:35.882Z,20.70
2018-12-01T06:33:39.077Z,20.68
2018-12-01T06:38:42.286Z,20.70
2018-12-01T06:43:45.499Z,20.68
2018-12-01T06:48:48.673Z,20.66
2018-12-01T06:53:51.823Z,20.64
2018-12-01T06:58:55.017Z,20.64
2018-12-01T07:03:58.225Z,20.63
2018-12-01T07:09:01.444Z,20.63
2018-12-01T07:14:05.182Z,20.63
2018-12-01T07:19:22.909Z,20.62
2018-12-01T07:24:26.118Z,20.59
2018-12-01T07:29:29.317Z,20.60
2018-12-01T07:34:32.539Z,20.59
2018-12-01T07:39:35.748Z,20.56
2018-12-01T07:44:38.957Z,20.55
2018-12-01T07:49:42.162Z,20.36
2018-12-01T07:54:45.365Z,20.06
2018-12-01T07:59:48.587Z,19.90
2018-12-01T08:04:51.818Z,20.04
2018-12-01T08:09:55.065Z,20.19
2018-12-01T08:14:58.569Z,20.25
2018-12-01T08:20:01.838Z,20.28
2018-12-01T08:25:08.009Z,20.33
2018-12-01T08:30:13.233Z,20.35
2018-12-01T08:35:16.466Z,20.41
2018-12-01T08:40:21.114Z,20.43
2018-12-01T08:45:24.337Z,20.44
2018-12-01T08:50:27.526Z,20.45
2018-12-01T08:55:30.730Z,20.48
2018-12-01T09:00:39.741Z,20.49
2018-12-01T09:05:42.893Z,20.53
2018-12-01T09:10:46.102Z,20.51
2018-12-01T09:15:49.265Z,20.53
2018-12-01T09:20:52.430Z,20.54
2018-12-01T09:25:55.622Z,20.54
2018-12-01T09:30:58.837Z,20.53
2018-12-01T09:36:02.039Z,20.54
2018-12-01T09:41:05.358Z,20.56
2018-12-01T09:46:08.553Z,20.56
2018-12-01T09:51:11.779Z,20.56
2018-12-01T09:56:14.991Z,20.57
2018-12-01T10:01:18.192Z,20.54
2018-12-01T10:06:21.402Z,20.56
2018-12-01T10:11:24.554Z,20.56
2018-12-01T10:16:27.805Z,20.58
2018-12-01T10:21:30.958Z,20.70
2018-12-01T10:26:34.126Z,20.76
2018-12-01T10:31:37.341Z,20.82
2018-12-01T10:36:40.550Z,20.84
2018-12-01T10:41:43.757Z,20.82
2018-12-01T10:46:46.958Z,20.82
2018-12-01T10:51:50.267Z,20.84
2018-12-01T10:56:53.494Z,20.84
2018-12-01T11:02:02.142Z,20.86
2018-12-01T11:07:05.916Z,20.91
2018-12-01T11:12:09.146Z,20.94
2018-12-01T11:17:13.362Z,20.97
2018-12-01T11:22:16.612Z,21.02
2018-12-01T11:27:19.795Z,21.05
2018-12-01T11:32:23.446Z,21.05
2018-12-01T11:37:26.946Z,21.07
2018-12-01T11:42:30.142Z,21.08
2018-12-01T11:47:33.362Z,21.11
2018-12-01T11:52:36.531Z,21.12
2018-12-01T11:57:40.823Z,21.11
2018-12-01T12:02:44.252Z,21.09
2018-12-01T12:07:58.922Z,21.12
2018-12-01T12:13:03.146Z,21.10
2018-12-01T12:18:06.484Z,21.11
2018-12-01T12:23:09.754Z,21.13
2018-12-01T12:28:12.942Z,21.12
2018-12-01T12:33:16.180Z,21.14
2018-12-01T12:38:19.367Z,21.11
2018-12-01T12:43:22.826Z,21.06
2018-12-01T12:48:26.003Z,21.06
2018-12-01T12:53:29.196Z,21.06
2018-12-01T12:58:32.390Z,21.07
2018-12-01T13:03:35.599Z,21.10
2018-12-01T13:08:38.762Z,21.12
2018-12-01T13:13:41.923Z,21.11
2018-12-01T13:18:45.122Z,21.10
2018-12-01T13:23:48.758Z,21.11
2018-12-01T13:28:51.992Z,21.13
2018-12-01T13:33:55.386Z,21.12
2018-12-01T13:38:58.586Z,21.13
2018-12-01T13:44:01.797Z,21.12
2018-12-01T13:49:05.113Z,21.13
2018-12-01T13:54:08.427Z,21.13
2018-12-01T13:59:11.733Z,21.09
2018-12-01T14:04:14.938Z,21.09
2018-12-01T14:09:18.666Z,21.09
2018-12-01T14:14:22.842Z,21.07
2018-12-01T14:19:26.420Z,21.06
2018-12-01T14:24:29.577Z,21.04
2018-12-01T14:29:32.824Z,21.03
2018-12-01T14:34:36.031Z,21.01
2018-12-01T14:39:39.231Z,21.00
2018-12-01T14:44:42.437Z,20.99
2018-12-01T14:49:45.647Z,21.03
2018-12-01T14:54:49.476Z,21.01
2018-12-01T14:59:54.314Z,20.99
2018-12-01T15:04:57.522Z,21.01
2018-12-01T15:10:00.736Z,21.01
2018-12-01T15:15:04.241Z,21.02
2018-12-01T15:20:16.454Z,21.03
2018-12-01T15:25:21.731Z,21.04
2018-12-01T15:30:26.913Z,21.02
2018-12-01T15:35:30.118Z,21.06
2018-12-01T15:40:33.299Z,21.06
2018-12-01T15:45:36.641Z,21.09
2018-12-01T15:50:39.939Z,21.08
2018-12-01T15:55:43.311Z,21.09
2018-12-01T16:00:46.707Z,21.08
2018-12-01T16:05:49.977Z,21.09
2018-12-01T16:10:53.190Z,21.10
2018-12-01T16:16:01.104Z,21.09
2018-12-01T16:21:04.365Z,21.09
2018-12-01T16:26:07.626Z,21.11
2018-12-01T16:31:10.798Z,21.11
2018-12-01T16:36:14.050Z,21.11
2018-12-01T16:41:22.170Z,21.07
2018-12-01T16:46:25.335Z,21.12
2018-12-01T16:51:28.586Z,21.09
2018-12-01T16:56:31.786Z,21.09
2018-12-01T17:01:34.982Z,21.07
2018-12-01T17:06:38.215Z,21.03
2018-12-01T17:11:41.430Z,21.03
2018-12-01T17:16:44.622Z,21.04
2018-12-01T17:21:47.828Z,20.99
2018-12-01T17:26:51.041Z,21.02
2018-12-01T17:31:54.233Z,21.14
2018-12-01T17:36:57.421Z,21.20
2018-12-01T17:42:01.878Z,21.27
2018-12-01T17:47:05.302Z,21.28
2018-12-01T17:52:08.494Z,21.32
2018-12-01T17:57:11.714Z,21.34
2018-12-01T18:02:14.910Z,21.35
2018-12-01T18:07:18.122Z,21.36
2018-12-01T18:12:21.326Z,21.44
2018-12-01T18:17:24.545Z,21.36
2018-12-01T18:22:27.755Z,21.44
2018-12-01T18:27:30.954Z,21.63
2018-12-01T18:32:34.158Z,21.73
2018-12-01T18:37:38.034Z,21.80
2018-12-01T18:42:41.213Z,21.83
2018-12-01T18:47:44.721Z,21.83
2018-12-01T18:52:52.793Z,21.81
2018-12-01T18:57:56.014Z,21.81
2018-12-01T19:02:59.270Z,21.77
2018-12-01T19:08:02.738Z,21.74
2018-12-01T19:13:06.978Z,21.69
2018-12-01T19:18:10.313Z,21.61
2018-12-01T19:23:14.759Z,21.58
2018-12-01T19:28:17.962Z,21.54
2018-12-01T19:33:22.541Z,21.52
2018-12-01T19:38:28.271Z,21.49
2018-12-01T19:43:31.478Z,21.50
2018-12-01T19:48:35.566Z,21.49
2018-12-01T19:53:38.734Z,21.50
2018-12-01T19:58:41.921Z,21.54
2018-12-01T20:03:45.149Z,21.55
2018-12-01T20:08:48.335Z,21.53
2018-12-01T20:13:51.559Z,21.51
2018-12-01T20:18:54.973Z,21.49
2018-12-01T20:23:58.144Z,21.45
2018-12-01T20:29:01.897Z,21.42
2018-12-01T20:34:05.235Z,21.40
2018-12-01T20:39:12.813Z,21.36
2018-12-01T20:44:16.030Z,21.35
2018-12-01T20:49:19.217Z,21.30
2018-12-01T20:54:33.586Z,21.28
2018-12-01T20:59:36.797Z,21.25
2018-12-01T21:04:40.006Z,21.26
2018-12-01T21:09:43.224Z,21.26
2018-12-01T21:14:46.457Z,21.22
2018-12-01T21:19:49.629Z,21.26
2018-12-01T21:24:52.844Z,21.33
2018-12-01T21:29:56.042Z,21.34
2018-12-01T21:34:59.258Z,21.34
2018-12-01T21:40:02.422Z,21.36
2018-12-01T21:45:07.859Z,21.34
2018-12-01T21:50:12.477Z,21.28
2018-12-01T21:55:15.687Z,21.25
2018-12-01T22:00:23.050Z,21.21
2018-12-01T22:05:38.122Z,21.17
2018-12-01T22:10:41.430Z,21.13
2018-12-01T22:15:44.596Z,21.11
2018-12-01T22:20:47.803Z,21.08
2018-12-01T22:25:51.001Z,21.06
2018-12-01T22:30:54.225Z,21.04
2018-12-01T22:35:57.430Z,21.06
2018-12-01T22:41:00.626Z,21.08
2018-12-01T22:46:03.849Z,21.09
2018-12-01T22:51:07.160Z,21.11
2018-12-01T22:56:10.381Z,21.12
2018-12-01T23:01:14.169Z,21.08
2018-12-01T23:06:17.402Z,21.10
2018-12-01T23:11:20.609Z,21.09
2018-12-01T23:16:23.812Z,21.10
2018-12-01T23:21:27.025Z,21.08
2018-12-01T23:26:31.565Z,21.09
2018-12-01T23:31:34.771Z,21.08
2018-12-01T23:36:37.981Z,21.06
2018-12-01T23:41:42.237Z,21.08
2018-12-01T23:46:45.401Z,21.08
2018-12-01T23:51:48.567Z,21.07
2018-12-01T23:56:51.752Z,21.08
